createdAt,value
2023-12-04T00:00:53.365Z,14.00
2023-12-04T00:04:54.966Z,13.77
2023-12-04T00:08:56.510Z,12.83
2023-12-04T00:12:59.515Z,13.70
2023-12-04T00:17:01.069Z,12.13
2023-12-04T00:21:02.607Z,14.47
2023-12-04T00:25:05.075Z,10.17
2023-12-04T00:29:07.984Z,10.70
2023-12-04T00:33:10.993Z,13.27
2023-12-04T00:37:12.748Z,12.60
2023-12-04T00:41:14.390Z,14.17
2023-12-04T00:45:17.252Z,13.23
2023-12-04T00:49:18.855Z,11.77
2023-12-04T00:53:20.514Z,9.57
2023-12-04T00:57:22.154Z,10.10
2023-12-04T01:01:24.969Z,12.67
2023-12-04T01:05:26.562Z,13.00
2023-12-04T01:09:28.079Z,11.53
2023-12-04T01:13:29.877Z,13.17
2023-12-04T01:17:32.788Z,11.50
2023-12-04T01:21:34.411Z,8.67
2023-12-04T01:25:35.947Z,9.87
2023-12-04T01:29:37.479Z,10.87
2023-12-04T01:33:40.640Z,10.30
2023-12-04T01:37:42.374Z,10.07
2023-12-04T01:41:43.910Z,10.60
2023-12-04T01:45:45.696Z,10.20
2023-12-04T01:49:48.680Z,10.37
2023-12-04T01:53:51.758Z,11.83
2023-12-04T01:57:53.566Z,10.30
2023-12-04T02:01:55.275Z,11.17
2023-12-04T02:06:00.408Z,9.57
2023-12-04T02:10:02.149Z,10.57
2023-12-04T02:14:03.707Z,10.50
2023-12-04T02:18:06.141Z,9.07
2023-12-04T02:22:09.076Z,11.90
2023-12-04T02:26:17.630Z,11.90
2023-12-04T02:30:22.189Z,8.60
2023-12-04T02:34:25.126Z,10.57
2023-12-04T02:38:27.398Z,9.60
2023-12-04T02:42:30.524Z,14.07
2023-12-04T02:46:32.366Z,8.53
2023-12-04T02:50:33.824Z,10.83
2023-12-04T02:54:35.435Z,13.50
2023-12-04T02:58:38.252Z,11.33
2023-12-04T03:02:39.682Z,10.07
2023-12-04T03:06:41.193Z,6.03
2023-12-04T03:10:42.672Z,10.87
2023-12-04T03:14:45.526Z,9.50
2023-12-04T03:18:47.215Z,9.20
2023-12-04T03:22:48.762Z,10.73
2023-12-04T03:26:50.227Z,10.80
2023-12-04T03:30:53.095Z,9.10
2023-12-04T03:34:54.627Z,11.00
2023-12-04T03:38:56.092Z,10.10
2023-12-04T03:42:57.613Z,11.23
2023-12-04T03:47:00.645Z,11.07
2023-12-04T03:51:02.179Z,9.70
2023-12-04T03:55:04.636Z,9.97
2023-12-04T03:59:06.645Z,10.73
2023-12-04T04:03:09.808Z,11.70
2023-12-04T04:07:12.495Z,11.13
2023-12-04T04:11:14.429Z,9.57
2023-12-04T04:15:15.978Z,10.10
2023-12-04T04:19:18.886Z,6.77
2023-12-04T04:23:20.395Z,10.67
2023-12-04T04:27:21.879Z,10.40
2023-12-04T04:31:23.612Z,8.83
2023-12-04T04:35:26.402Z,11.37
2023-12-04T04:39:27.878Z,10.43
2023-12-04T04:43:29.612Z,11.90
2023-12-04T04:47:31.102Z,9.73
2023-12-04T04:51:34.175Z,9.93
2023-12-04T04:55:47.251Z,9.40
2023-12-04T04:59:50.727Z,9.20
2023-12-04T05:08:50.559Z,11.30
2023-12-04T05:12:52.265Z,10.17
2023-12-04T05:16:53.740Z,12.03
2023-12-04T05:20:55.231Z,11.13
2023-12-04T05:24:58.889Z,16.07
2023-12-04T05:29:00.398Z,13.50
2023-12-04T05:33:02.907Z,12.53
2023-12-04T05:37:04.818Z,12.63
2023-12-04T05:41:07.806Z,12.97
2023-12-04T05:45:10.163Z,13.37
2023-12-04T05:49:11.731Z,8.60
2023-12-04T05:53:13.527Z,13.57
2023-12-04T05:57:16.348Z,12.73
2023-12-04T06:01:18.103Z,13.40
2023-12-04T06:05:19.858Z,14.57
2023-12-04T06:09:21.370Z,15.57
2023-12-04T06:13:24.169Z,12.37
2023-12-04T06:17:25.984Z,11.93
2023-12-04T06:21:27.455Z,11.97
2023-12-04T06:25:29.858Z,12.53
2023-12-04T06:29:33.784Z,12.20
2023-12-04T06:33:36.009Z,11.57
2023-12-04T06:37:39.144Z,13.93
2023-12-04T06:41:41.537Z,13.33
2023-12-04T06:45:45.118Z,12.47
2023-12-04T06:49:46.651Z,12.20
2023-12-04T06:53:48.266Z,7.80
2023-12-04T06:57:49.823Z,8.13
2023-12-04T07:01:55.017Z,15.97
2023-12-04T07:05:56.612Z,13.17
2023-12-04T07:09:58.415Z,11.40
2023-12-04T07:13:59.982Z,8.07
2023-12-04T07:18:05.176Z,12.40
2023-12-04T07:22:06.806Z,12.20
2023-12-04T07:26:08.441Z,11.17
2023-12-04T07:30:10.625Z,13.90
2023-12-04T07:34:15.240Z,12.13
2023-12-04T07:38:16.847Z,10.30
2023-12-04T07:42:18.387Z,9.97
2023-12-04T07:46:19.996Z,9.60
2023-12-04T07:50:22.785Z,9.40
2023-12-04T07:54:24.241Z,8.27
2023-12-04T07:58:25.754Z,9.43
2023-12-04T08:02:27.505Z,9.07
2023-12-04T08:06:30.929Z,8.60
2023-12-04T08:10:32.459Z,9.93
2023-12-04T08:14:34.915Z,10.13
2023-12-04T08:18:36.841Z,8.10
2023-12-04T08:22:40.035Z,9.80
2023-12-04T08:26:41.510Z,9.67
2023-12-04T08:30:43.080Z,12.17
2023-12-04T08:34:45.196Z,9.87
2023-12-04T08:38:48.052Z,11.30
2023-12-04T08:42:49.573Z,11.03
2023-12-04T08:46:51.217Z,11.33
2023-12-04T08:50:52.765Z,9.70
2023-12-04T08:54:56.654Z,8.50
2023-12-04T08:58:58.218Z,8.10
2023-12-04T09:03:08.212Z,9.83
2023-12-04T09:08:26.741Z,9.07
2023-12-04T09:11:35.320Z,13.07
2023-12-04T09:15:36.942Z,11.70
2023-12-04T09:19:38.686Z,11.00
2023-12-04T09:23:41.418Z,13.93
2023-12-04T09:27:44.568Z,8.67
2023-12-04T09:31:46.089Z,7.27
2023-12-04T09:35:47.615Z,10.33
2023-12-04T09:39:49.069Z,10.40
2023-12-04T09:43:52.455Z,9.70
2023-12-04T09:47:55.200Z,10.30
2023-12-04T09:51:58.886Z,9.87
2023-12-04T09:56:04.371Z,8.70
2023-12-04T10:00:10.126Z,9.00
2023-12-04T10:04:11.610Z,10.57
2023-12-04T10:08:13.250Z,11.90
2023-12-04T10:12:19.371Z,12.77
2023-12-04T10:16:36.505Z,9.83
2023-12-04T10:20:52.578Z,6.63
2023-12-04T10:24:54.076Z,9.73
2023-12-04T10:29:03.576Z,12.33
2023-12-04T10:33:07.711Z,10.40
2023-12-04T10:37:11.098Z,10.87
2023-12-04T10:41:15.937Z,10.60
2023-12-04T10:45:17.977Z,8.00
2023-12-04T10:49:21.314Z,8.40
2023-12-04T10:53:22.895Z,13.13
2023-12-04T10:57:28.007Z,13.23
2023-12-04T11:01:33.368Z,11.43
2023-12-04T11:05:38.956Z,11.97
2023-12-04T11:09:41.150Z,10.87
2023-12-04T11:13:47.093Z,11.47
2023-12-04T11:17:52.277Z,10.90
2023-12-04T11:21:59.578Z,15.17
2023-12-04T11:26:02.092Z,11.53
2023-12-04T11:30:04.987Z,11.17
2023-12-04T11:34:09.861Z,13.10
2023-12-04T11:38:15.274Z,10.97
2023-12-04T11:42:20.264Z,13.00
2023-12-04T11:46:23.648Z,11.00
2023-12-04T11:50:25.835Z,13.33
2023-12-04T11:54:29.888Z,14.77
2023-12-04T11:58:31.420Z,14.03
2023-12-04T12:03:14.092Z,13.57
2023-12-04T12:06:55.499Z,12.83
2023-12-04T12:10:59.399Z,11.77
2023-12-04T12:15:01.065Z,9.80
2023-12-04T12:19:02.590Z,12.37
2023-12-04T12:23:04.625Z,11.00
2023-12-04T12:27:08.652Z,11.07
2023-12-04T12:31:11.846Z,8.40
2023-12-04T12:35:13.541Z,12.07
2023-12-04T12:39:15.525Z,10.23
2023-12-04T12:43:21.550Z,9.50
2023-12-04T12:47:24.087Z,10.87
2023-12-04T12:51:26.966Z,11.03
2023-12-04T12:55:28.775Z,9.70
2023-12-04T12:59:31.766Z,12.50
2023-12-04T13:03:33.449Z,7.77
2023-12-04T13:07:35.109Z,8.93
2023-12-04T13:11:36.616Z,9.97
2023-12-04T13:15:39.610Z,11.60
2023-12-04T13:19:41.099Z,8.07
2023-12-04T13:23:42.831Z,6.47
2023-12-04T13:27:44.389Z,8.47
2023-12-04T13:31:47.472Z,9.80
2023-12-04T13:35:49.241Z,10.73
2023-12-04T13:40:24.098Z,9.47
2023-12-04T13:44:37.840Z,8.20
2023-12-04T13:49:29.701Z,8.40
2023-12-04T13:53:53.864Z,7.43
2023-12-04T13:58:04.061Z,9.40
2023-12-04T14:02:06.352Z,9.53
2023-12-04T14:06:09.379Z,8.70
2023-12-04T14:10:12.484Z,9.40
2023-12-04T14:14:14.312Z,9.00
2023-12-04T14:18:15.871Z,6.83
2023-12-04T14:22:17.689Z,8.20
2023-12-04T14:26:20.564Z,8.37
2023-12-04T14:30:22.060Z,8.30
2023-12-04T14:34:24.111Z,11.33
2023-12-04T14:38:25.993Z,6.93
2023-12-04T14:42:29.006Z,5.27
2023-12-04T14:46:30.593Z,6.23
2023-12-04T14:50:32.202Z,5.43
2023-12-04T14:54:33.844Z,7.43
2023-12-04T14:58:36.659Z,8.67
2023-12-04T15:02:41.072Z,7.80
2023-12-04T15:06:42.727Z,8.30
2023-12-04T15:10:44.362Z,5.57
2023-12-04T15:14:47.226Z,7.50
2023-12-04T15:18:49.914Z,7.20
2023-12-04T15:22:51.536Z,8.50
2023-12-04T15:26:53.019Z,8.03
2023-12-04T15:30:56.049Z,7.97
2023-12-04T15:34:58.822Z,8.47
2023-12-04T15:39:01.203Z,7.43
2023-12-04T15:43:02.875Z,7.77
2023-12-04T15:47:06.188Z,5.70
2023-12-04T15:51:08.299Z,6.43
2023-12-04T15:55:10.140Z,9.83
2023-12-04T15:59:11.585Z,8.10
2023-12-04T16:03:15.525Z,8.77
2023-12-04T16:07:17.136Z,7.53
2023-12-04T16:11:18.798Z,11.10
2023-12-04T16:15:20.535Z,8.93
2023-12-04T16:19:23.481Z,6.43
2023-12-04T16:23:25.033Z,8.03
2023-12-04T16:27:26.635Z,6.10
2023-12-04T16:31:28.192Z,8.63
2023-12-04T16:35:31.993Z,9.73
2023-12-04T16:39:33.720Z,7.50
2023-12-04T16:43:35.243Z,12.37
2023-12-04T16:47:36.949Z,13.67
2023-12-04T16:51:39.994Z,12.63
2023-12-04T16:55:41.818Z,15.10
2023-12-04T16:59:44.568Z,14.50
2023-12-04T17:03:46.199Z,7.63
2023-12-04T17:07:49.095Z,7.83
2023-12-04T17:11:51.560Z,8.47
2023-12-04T17:15:53.060Z,8.97
2023-12-04T17:19:54.907Z,7.73
2023-12-04T17:23:57.794Z,8.20
2023-12-04T17:27:59.276Z,10.10
2023-12-04T17:32:00.860Z,7.60
2023-12-04T17:36:02.636Z,9.47
2023-12-04T17:40:06.606Z,9.13
2023-12-04T17:44:08.082Z,8.83
2023-12-04T17:48:09.639Z,9.77
2023-12-04T17:52:11.331Z,13.10
2023-12-04T17:56:14.224Z,13.17
2023-12-04T18:00:16.420Z,11.50
2023-12-04T18:04:18.071Z,10.80
2023-12-04T18:08:21.032Z,10.93
2023-12-04T18:12:24.041Z,12.37
2023-12-04T18:16:26.396Z,9.33
2023-12-04T18:20:29.304Z,13.07
2023-12-04T18:24:30.778Z,12.20
2023-12-04T18:28:34.356Z,14.83
2023-12-04T18:32:36.673Z,14.50
2023-12-04T18:36:43.000Z,11.60
2023-12-04T18:40:45.136Z,15.40
2023-12-04T18:44:48.628Z,11.17
2023-12-04T18:48:50.757Z,13.63
2023-12-04T18:52:52.831Z,15.93
2023-12-04T18:56:54.320Z,10.67
2023-12-04T19:00:57.468Z,12.50
2023-12-04T19:05:01.314Z,15.97
2023-12-04T19:09:03.129Z,10.97
2023-12-04T19:13:04.924Z,10.07
2023-12-04T19:17:07.860Z,11.83
2023-12-04T19:21:09.998Z,12.40
2023-12-04T19:25:11.515Z,9.23
2023-12-04T19:29:18.681Z,12.90
2023-12-04T19:33:28.446Z,13.93
2023-12-04T19:37:32.336Z,16.33
2023-12-04T19:41:33.839Z,14.47
2023-12-04T19:45:35.683Z,13.63
2023-12-04T19:49:43.453Z,11.27
2023-12-04T19:53:45.003Z,15.90
2023-12-04T19:57:46.539Z,15.37
2023-12-04T20:01:48.039Z,16.77
2023-12-04T20:05:51.161Z,14.83
2023-12-04T20:09:52.641Z,12.80
2023-12-04T20:13:54.127Z,12.73
2023-12-04T20:17:56.764Z,13.43
2023-12-04T20:22:00.221Z,11.57
2023-12-04T20:26:01.987Z,13.97
2023-12-04T20:30:04.271Z,14.77
2023-12-04T20:34:06.401Z,16.10
2023-12-04T20:38:09.321Z,14.63
2023-12-04T20:42:10.839Z,13.23
2023-12-04T20:46:12.338Z,15.03
2023-12-04T20:50:13.894Z,17.57
2023-12-04T20:54:17.924Z,16.60
2023-12-04T20:58:19.538Z,16.10
2023-12-04T21:02:21.016Z,18.33
2023-12-04T21:06:22.536Z,20.43
2023-12-04T21:10:25.434Z,19.03
2023-12-04T21:14:27.034Z,15.53
2023-12-04T21:18:28.706Z,16.20
2023-12-04T21:22:30.685Z,13.73
2023-12-04T21:26:33.869Z,16.43
2023-12-04T21:30:35.448Z,17.93
2023-12-04T21:34:37.161Z,16.57
2023-12-04T21:38:38.782Z,16.67
2023-12-04T21:42:42.103Z,15.43
2023-12-04T21:46:43.730Z,15.97
2023-12-04T21:50:45.317Z,14.87
2023-12-04T21:54:46.962Z,12.90
2023-12-04T21:58:49.868Z,14.93
2023-12-04T22:02:51.379Z,17.70
2023-12-04T22:06:52.966Z,15.20
2023-12-04T22:10:54.714Z,17.37
2023-12-04T22:14:57.994Z,13.53
2023-12-04T22:19:00.307Z,13.07
2023-12-04T22:23:01.828Z,14.00
2023-12-04T22:27:03.693Z,14.97
2023-12-04T22:31:07.245Z,15.53
2023-12-04T22:35:09.157Z,18.73
2023-12-04T22:39:10.766Z,19.30
2023-12-04T22:43:12.510Z,15.73
2023-12-04T22:47:15.475Z,19.20
2023-12-04T22:51:17.023Z,16.73
2023-12-04T22:55:18.514Z,17.57
2023-12-04T22:59:20.188Z,17.87
2023-12-04T23:03:23.092Z,18.23
2023-12-04T23:07:24.614Z,19.60
2023-12-04T23:11:27.122Z,17.67
2023-12-04T23:15:28.719Z,18.60
2023-12-04T23:19:32.303Z,18.60
2023-12-04T23:23:33.949Z,18.03
2023-12-04T23:27:38.128Z,14.97
2023-12-04T23:31:40.290Z,16.33
2023-12-04T23:35:43.103Z,18.03
2023-12-04T23:39:44.634Z,17.03
2023-12-04T23:43:46.157Z,17.23
2023-12-04T23:47:47.716Z,19.77
2023-12-04T23:51:51.729Z,18.63
2023-12-04T23:55:53.194Z,17.60
2023-12-04T23:59:54.670Z,19.33
